EGFF/CWL METAR and TAF weather

Enter ICAO airport designator
Station Type Date Time Source
EGFF METAR 2018/07/21 12:50 UTC NOAA

EGFF 211250Z AUTO 24006KT 200V270 9999 NCD 22/14 Q1015


Station Type Date Time Source
EGFF Decoded METAR 2018/07/21 12:50 UTC NOAA

Cardiff-Wales Airport, United Kingdom (EGFF) 51-24N 003-21W 0M
Jul 21, 2018 - 08:50 AM EDT / 2018.07.21 1250 UTC
Wind: from the WSW (240 degrees) at 7 MPH (6 KT) (direction variable):0
Visibility: greater than 7 mile(s):0
Temperature: 71 F (22 C)
Dew Point: 57 F (14 C)
Relative Humidity: 60%
Pressure (altimeter): 29.97 in. Hg (1015 hPa)
ob: EGFF 211250Z AUTO 24006KT 200V270 9999 NCD 22/14 Q1015
cycle: 13

Station Type Date Time Source
EGFF TAF 2018/07/21 12:15 UTC NOAA

TAF EGFF 211057Z 2112/2212 VRB05KT 9999 SCT030 PROB30 2203/2208 8000


Example: see airport list